createdAt,value
2022-12-29T00:00:18.828Z,97378.41
2022-12-29T00:02:46.974Z,97385.56
2022-12-29T00:05:15.225Z,97387.38
2022-12-29T00:07:44.701Z,97391.03
2022-12-29T00:10:12.776Z,97386.63
2022-12-29T00:12:58.296Z,97383.94
2022-12-29T00:15:41.358Z,97382.22
2022-12-29T00:18:09.674Z,97382.34
2022-12-29T00:20:55.428Z,97385.97
2022-12-29T00:23:42.303Z,97378.88
2022-12-29T00:26:32.474Z,97379.81
2022-12-29T00:29:18.798Z,97363.81
2022-12-29T00:32:04.202Z,97361.25
2022-12-29T00:34:49.721Z,97380.03
2022-12-29T00:37:17.850Z,97367.47
2022-12-29T00:40:05.230Z,97355.13
2022-12-29T00:42:50.573Z,97367.66
2022-12-29T00:45:18.707Z,97364.97
2022-12-29T00:47:49.317Z,97353.38
2022-12-29T00:50:16.577Z,97347.13
2022-12-29T00:52:46.324Z,97365.91
2022-12-29T00:55:15.922Z,97366.91
2022-12-29T00:57:44.278Z,97357.09
2022-12-29T01:00:13.788Z,97354.53
2022-12-29T01:02:42.376Z,97347.44
2022-12-29T01:05:10.891Z,97361.81
2022-12-29T01:07:39.648Z,97355.50
2022-12-29T01:10:13.431Z,97365.38
2022-12-29T01:12:43.006Z,97363.56
2022-12-29T01:15:12.675Z,97361.81
2022-12-29T01:17:40.814Z,97357.41
2022-12-29T01:20:09.615Z,97363.72
2022-12-29T01:22:37.708Z,97362.03
2022-12-29T01:25:06.499Z,97357.59
2022-12-29T01:27:35.517Z,97362.97
2022-12-29T01:30:05.757Z,97360.38
2022-12-29T01:32:33.979Z,97357.69
2022-12-29T01:35:02.059Z,97347.91
2022-12-29T01:37:30.290Z,97351.47
2022-12-29T01:39:58.485Z,97349.72
2022-12-29T01:42:27.220Z,97349.72
2022-12-29T01:44:56.586Z,97343.47
2022-12-29T01:47:32.655Z,97348.94
2022-12-29T01:50:03.570Z,97341.78
2022-12-29T01:52:33.695Z,97343.59
2022-12-29T01:55:03.404Z,97347.22
2022-12-29T01:57:33.737Z,97334.78
2022-12-29T02:00:04.465Z,97337.34
2022-12-29T02:02:42.497Z,97333.91
2022-12-29T02:05:13.628Z,97335.72
2022-12-29T02:07:41.918Z,97328.63
2022-12-29T02:10:12.012Z,97317.91
2022-12-29T02:12:40.110Z,97311.69
2022-12-29T02:15:09.453Z,97310.81
2022-12-29T02:17:46.714Z,97302.88
2022-12-29T02:20:49.348Z,97300.19
2022-12-29T02:23:29.732Z,97305.53
2022-12-29T02:26:10.253Z,97305.66
2022-12-29T02:29:17.024Z,97299.41
2022-12-29T02:31:48.273Z,97297.72
2022-12-29T02:34:21.118Z,97292.34
2022-12-29T02:36:51.987Z,97287.91
2022-12-29T02:39:24.166Z,97280.75
2022-12-29T02:41:58.768Z,97281.69
2022-12-29T02:44:28.922Z,97274.50
2022-12-29T02:47:00.744Z,97273.75
2022-12-29T02:49:33.426Z,97267.50
2022-12-29T02:52:04.402Z,97275.56
2022-12-29T02:54:43.451Z,97273.63
2022-12-29T02:57:16.880Z,97274.72
2022-12-29T02:59:46.574Z,97274.72
2022-12-29T03:02:28.923Z,97277.41
2022-12-29T03:05:24.318Z,97283.72
2022-12-29T03:07:56.616Z,97289.06
2022-12-29T03:10:32.903Z,97281.13
2022-12-29T03:13:22.478Z,97286.50
2022-12-29T03:16:06.744Z,97274.03
2022-12-29T03:18:41.501Z,97275.00
2022-12-29T03:21:12.388Z,97270.50
2022-12-29T03:23:40.795Z,97274.13
2022-12-29T03:26:10.567Z,97271.44
2022-12-29T03:28:41.008Z,97273.38
2022-12-29T03:31:10.576Z,97262.63
2022-12-29T03:33:42.268Z,97267.13
2022-12-29T03:36:13.696Z,97267.13
2022-12-29T03:38:44.662Z,97259.09
2022-12-29T03:41:13.955Z,97253.81
2022-12-29T03:43:42.139Z,97255.56
2022-12-29T03:46:11.053Z,97261.88
2022-12-29T03:48:42.369Z,97258.31
2022-12-29T03:51:11.092Z,97266.38
2022-12-29T03:53:39.171Z,97267.34
2022-12-29T03:56:07.858Z,97278.94
2022-12-29T03:58:35.948Z,97274.50
2022-12-29T04:01:10.243Z,97270.88
2022-12-29T04:03:40.275Z,97268.28
2022-12-29T04:06:10.551Z,97260.34
2022-12-29T04:08:48.420Z,97266.69
2022-12-29T04:11:16.528Z,97264.00
2022-12-29T04:13:47.092Z,97264.00
2022-12-29T04:16:19.558Z,97259.56
2022-12-29T04:18:47.802Z,97262.16
2022-12-29T04:21:17.561Z,97267.63
2022-12-29T04:23:46.596Z,97269.44
2022-12-29T04:26:15.224Z,97265.91
2022-12-29T04:28:59.823Z,97266.84
2022-12-29T04:31:36.719Z,97265.97
2022-12-29T04:34:04.921Z,97258.81
2022-12-29T04:36:35.201Z,97259.78
2022-12-29T04:39:03.332Z,97255.34
2022-12-29T04:41:31.529Z,97258.03
2022-12-29T04:43:59.762Z,97250.97
2022-12-29T04:46:50.429Z,97258.03
2022-12-29T04:49:41.540Z,97254.50
2022-12-29T04:52:26.329Z,97261.69
2022-12-29T04:54:54.780Z,97259.84
2022-12-29T04:57:23.229Z,97263.50
2022-12-29T04:59:55.668Z,97260.81
2022-12-29T05:02:24.477Z,97266.19
2022-12-29T05:04:54.559Z,97261.75
2022-12-29T05:07:22.743Z,97259.97
2022-12-29T05:09:52.215Z,97260.81
2022-12-29T05:12:20.341Z,97277.84
2022-12-29T05:14:56.244Z,97281.41
2022-12-29T05:17:24.376Z,97276.91
2022-12-29T05:19:52.479Z,97274.34
2022-12-29T05:22:21.435Z,97279.69
2022-12-29T05:24:49.577Z,97287.75
2022-12-29T05:27:19.489Z,97285.91
2022-12-29T05:30:00.938Z,97287.63
2022-12-29T05:32:29.043Z,97284.97
2022-12-29T05:34:57.243Z,97286.75
2022-12-29T05:37:26.267Z,97289.44
2022-12-29T05:39:54.372Z,97293.88
2022-12-29T05:42:23.964Z,97286.66
2022-12-29T05:44:57.411Z,97284.09
2022-12-29T05:47:43.766Z,97288.56
2022-12-29T05:50:25.885Z,97286.75
2022-12-29T05:53:12.679Z,97295.78
2022-12-29T05:55:46.775Z,97293.94
2022-12-29T05:58:18.317Z,97298.34
2022-12-29T06:00:46.427Z,97301.97
2022-12-29T06:03:14.885Z,97302.84
2022-12-29T06:05:43.528Z,97318.94
2022-12-29T06:08:11.660Z,97310.91
2022-12-29T06:10:39.757Z,97310.91
2022-12-29T06:13:10.024Z,97308.22
2022-12-29T06:15:43.189Z,97308.22
2022-12-29T06:18:16.453Z,97311.75
2022-12-29T06:20:47.980Z,97315.31
2022-12-29T06:23:19.606Z,97311.75
2022-12-29T06:25:49.352Z,97318.00
2022-12-29T06:28:18.224Z,97308.22
2022-12-29T06:30:48.987Z,97318.00
2022-12-29T06:33:17.175Z,97315.31
2022-12-29T06:35:46.811Z,97323.34
2022-12-29T06:38:16.209Z,97328.72
2022-12-29T06:40:46.048Z,97326.97
2022-12-29T06:43:17.115Z,97329.66
2022-12-29T06:46:07.012Z,97334.91
2022-12-29T06:48:35.230Z,97335.63
2022-12-29T06:51:03.413Z,97327.66
2022-12-29T06:53:31.642Z,97329.50
2022-12-29T06:55:59.784Z,97329.38
2022-12-29T06:58:27.987Z,97335.63
2022-12-29T07:00:56.076Z,97343.34
2022-12-29T07:03:25.681Z,97334.28
2022-12-29T07:05:55.243Z,97339.53
2022-12-29T07:08:23.407Z,97334.00
2022-12-29T07:10:51.479Z,97348.06
2022-12-29T07:13:19.574Z,97343.47
2022-12-29T07:15:47.715Z,97342.53
2022-12-29T07:18:15.771Z,97346.16
2022-12-29T07:20:45.288Z,97350.66
2022-12-29T07:23:13.402Z,97347.03
2022-12-29T07:25:42.325Z,97338.88
2022-12-29T07:28:10.448Z,97344.25
2022-12-29T07:30:39.240Z,97344.13
2022-12-29T07:33:07.344Z,97340.50
2022-12-29T07:35:35.818Z,97340.31
2022-12-29T07:38:05.339Z,97338.41
2022-12-29T07:40:33.642Z,97336.59
2022-12-29T07:43:01.688Z,97340.25
2022-12-29T07:45:36.384Z,97329.50
2022-12-29T07:48:10.476Z,97338.50
2022-12-29T07:50:38.663Z,97342.06
2022-12-29T07:53:08.087Z,97333.13
2022-12-29T07:55:36.193Z,97346.53
2022-12-29T07:58:04.275Z,97347.41
2022-12-29T08:00:32.405Z,97351.03
2022-12-29T08:03:00.501Z,97350.97
2022-12-29T08:05:28.655Z,97345.59
2022-12-29T08:07:56.777Z,97344.63
2022-12-29T08:10:26.361Z,97334.00
2022-12-29T08:12:54.459Z,97332.19
2022-12-29T08:15:27.068Z,97340.25
2022-12-29T08:17:58.780Z,97329.31
2022-12-29T08:20:26.875Z,97336.41
2022-12-29T08:22:55.011Z,97336.41
2022-12-29T08:25:23.113Z,97340.81
2022-12-29T08:27:53.732Z,97340.81
2022-12-29T08:30:21.813Z,97335.44
2022-12-29T08:32:50.042Z,97334.50
2022-12-29T08:35:18.316Z,97329.94
2022-12-29T08:37:46.458Z,97335.19
2022-12-29T08:40:14.985Z,97330.69
2022-12-29T08:42:43.099Z,97334.16
2022-12-29T08:45:13.000Z,97336.81
2022-12-29T08:47:41.124Z,97334.91
2022-12-29T08:50:09.810Z,97333.06
2022-12-29T08:52:37.925Z,97333.81
2022-12-29T08:55:06.824Z,97330.19
2022-12-29T08:57:35.124Z,97331.91
2022-12-29T09:00:08.855Z,97330.97
2022-12-29T09:02:38.558Z,97343.41
2022-12-29T09:05:07.807Z,97343.41
2022-12-29T09:07:35.911Z,97345.03
2022-12-29T09:10:04.500Z,97340.44
2022-12-29T09:12:36.393Z,97336.88
2022-12-29T09:15:05.655Z,97337.66
2022-12-29T09:17:46.379Z,97339.47
2022-12-29T09:20:16.632Z,97329.72
2022-12-29T09:22:44.940Z,97323.38
2022-12-29T09:25:13.222Z,97326.91
2022-12-29T09:27:41.478Z,97324.13
2022-12-29T09:30:11.187Z,97326.81
2022-12-29T09:32:44.600Z,97326.75
2022-12-29T09:35:13.396Z,97324.06
2022-12-29T09:37:42.930Z,97321.28
2022-12-29T09:40:19.199Z,97325.66
2022-12-29T09:43:00.426Z,97318.47
2022-12-29T09:45:30.104Z,97311.31
2022-12-29T09:47:58.270Z,97310.31
2022-12-29T09:50:28.211Z,97299.59
2022-12-29T09:53:01.028Z,97297.78
2022-12-29T09:55:33.879Z,97287.91
2022-12-29T09:58:03.609Z,97281.56
2022-12-29T10:00:38.404Z,97274.38
2022-12-29T10:03:08.580Z,97274.28
2022-12-29T10:05:39.653Z,97269.66
2022-12-29T10:08:21.007Z,97269.66
2022-12-29T10:10:53.062Z,97264.31
2022-12-29T10:13:32.178Z,97260.66
2022-12-29T10:16:04.827Z,97254.31
2022-12-29T10:18:46.900Z,97264.00
2022-12-29T10:21:19.725Z,97249.72
2022-12-29T10:23:51.097Z,97255.09
2022-12-29T10:26:21.045Z,97251.47
2022-12-29T10:28:50.356Z,97247.91
2022-12-29T10:31:21.106Z,97247.91
2022-12-29T10:33:52.238Z,97249.66
2022-12-29T10:36:21.560Z,97243.28
2022-12-29T10:39:07.486Z,97237.06
2022-12-29T10:41:38.884Z,97232.56
2022-12-29T10:44:07.072Z,97236.13
2022-12-29T10:46:36.876Z,97224.41
2022-12-29T10:49:05.374Z,97224.41
2022-12-29T10:51:35.461Z,97228.81
2022-12-29T10:54:07.119Z,97222.47
2022-12-29T10:56:42.783Z,97223.34
2022-12-29T10:59:14.891Z,97219.72
2022-12-29T11:01:45.400Z,97224.09
2022-12-29T11:04:24.742Z,97213.38
2022-12-29T11:06:52.826Z,97213.25
2022-12-29T11:09:36.625Z,97217.78
2022-12-29T11:12:24.249Z,97219.50
2022-12-29T11:15:03.723Z,97214.22
2022-12-29T11:17:32.000Z,97210.69
2022-12-29T11:20:00.241Z,97212.41
2022-12-29T11:22:30.043Z,97212.31
2022-12-29T11:25:12.407Z,97216.69
2022-12-29T11:27:43.203Z,97207.81
2022-12-29T11:30:24.159Z,97207.81
2022-12-29T11:32:53.280Z,97212.19
2022-12-29T11:35:33.121Z,97214.00
2022-12-29T11:38:01.755Z,97211.25
2022-12-29T11:40:31.384Z,97196.97
2022-12-29T11:43:00.700Z,97206.72
2022-12-29T11:45:30.068Z,97203.09
2022-12-29T11:47:59.733Z,97196.75
2022-12-29T11:50:30.449Z,97188.59
2022-12-29T11:53:00.813Z,97202.03
2022-12-29T11:55:29.157Z,97190.31
2022-12-29T11:58:00.026Z,97193.88
2022-12-29T12:00:28.414Z,97182.13
2022-12-29T12:02:58.897Z,97183.00
2022-12-29T12:05:32.028Z,97188.28
2022-12-29T12:08:04.000Z,97183.75
2022-12-29T12:10:33.823Z,97174.75
2022-12-29T12:13:08.006Z,97176.47
2022-12-29T12:15:45.156Z,97174.97
2022-12-29T12:18:16.761Z,97174.19
2022-12-29T12:20:47.643Z,97166.16
2022-12-29T12:23:29.685Z,97161.84
2022-12-29T12:26:00.255Z,97162.59
2022-12-29T12:28:36.999Z,97169.72
2022-12-29T12:31:06.701Z,97171.13
2022-12-29T12:33:36.432Z,97159.13
2022-12-29T12:36:29.294Z,97163.53
2022-12-29T12:38:58.941Z,97162.88
2022-12-29T12:41:31.987Z,97151.50
2022-12-29T12:44:03.896Z,97149.56
2022-12-29T12:46:44.888Z,97157.28
2022-12-29T12:49:51.967Z,97152.59
2022-12-29T12:52:24.805Z,97146.13
2022-12-29T12:55:07.651Z,97152.25
2022-12-29T12:57:42.782Z,97148.63
2022-12-29T13:00:13.501Z,97145.94
2022-12-29T13:02:47.399Z,97149.50
2022-12-29T13:05:39.578Z,97154.88
2022-12-29T13:08:41.383Z,97153.03
2022-12-29T13:11:13.983Z,97149.50
2022-12-29T13:13:58.258Z,97153.88
2022-12-29T13:16:31.347Z,97154.75
2022-12-29T13:19:01.413Z,97157.44
2022-12-29T13:21:39.455Z,97155.72
2022-12-29T13:24:13.051Z,97161.94
2022-12-29T13:26:44.400Z,97159.25
2022-12-29T13:29:17.479Z,97155.63
2022-12-29T13:31:50.507Z,97154.75
2022-12-29T13:34:21.946Z,97145.84
2022-12-29T13:36:51.759Z,97152.06
2022-12-29T13:39:21.835Z,97153.88
2022-12-29T13:41:51.454Z,97150.34
2022-12-29T13:44:22.582Z,97150.34
2022-12-29T13:46:52.243Z,97154.75
2022-12-29T13:49:20.983Z,97158.31
2022-12-29T13:51:51.248Z,97155.63
2022-12-29T13:54:31.752Z,97160.25
2022-12-29T13:57:05.054Z,97155.72
2022-12-29T13:59:41.835Z,97160.25
2022-12-29T14:02:17.557Z,97168.28
2022-12-29T14:04:58.166Z,97173.56
2022-12-29T14:07:26.275Z,97167.31
2022-12-29T14:09:54.807Z,97173.56
2022-12-29T14:12:38.184Z,97177.94
2022-12-29T14:15:22.417Z,97171.75
2022-12-29T14:18:05.955Z,97174.31
2022-12-29T14:20:34.207Z,97183.13
2022-12-29T14:23:03.202Z,97175.06
2022-12-29T14:25:54.521Z,97179.47
2022-12-29T14:28:25.182Z,97181.31
2022-12-29T14:30:54.461Z,97181.31
2022-12-29T14:33:24.726Z,97175.94
2022-12-29T14:35:53.512Z,97180.31
2022-12-29T14:38:26.810Z,97174.00
2022-12-29T14:40:55.152Z,97186.56
2022-12-29T14:43:26.109Z,97179.38
2022-12-29T14:46:00.056Z,97188.28
2022-12-29T14:48:36.116Z,97185.59
2022-12-29T14:51:04.208Z,97187.50
2022-12-29T14:53:44.374Z,97184.81
2022-12-29T14:56:12.717Z,97183.88
2022-12-29T14:58:45.952Z,97184.00
2022-12-29T15:01:27.306Z,97187.50
2022-12-29T15:03:59.681Z,97190.13
2022-12-29T15:06:30.122Z,97196.31
2022-12-29T15:09:02.703Z,97190.13
2022-12-29T15:11:43.502Z,97193.75
2022-12-29T15:14:33.580Z,97212.44
2022-12-29T15:17:01.801Z,97201.69
2022-12-29T15:19:31.351Z,97212.53
2022-12-29T15:21:59.507Z,97214.38
2022-12-29T15:24:27.600Z,97203.72
2022-12-29T15:26:56.065Z,97209.97
2022-12-29T15:29:34.961Z,97208.22
2022-12-29T15:32:05.454Z,97204.91
2022-12-29T15:34:35.012Z,97205.31
2022-12-29T15:37:07.954Z,97211.72
2022-12-29T15:39:36.121Z,97209.28
2022-12-29T15:42:06.327Z,97204.84
2022-12-29T15:44:36.715Z,97205.81
2022-12-29T15:47:05.375Z,97202.38
2022-12-29T15:49:34.803Z,97203.31
2022-12-29T15:52:02.912Z,97198.06
2022-12-29T15:54:31.775Z,97198.06
2022-12-29T15:56:59.994Z,97196.91
2022-12-29T15:59:29.078Z,97209.38
2022-12-29T16:01:57.961Z,97201.09
2022-12-29T16:04:26.461Z,97207.22
2022-12-29T16:06:59.729Z,97210.56
2022-12-29T16:09:32.190Z,97214.00
2022-12-29T16:12:01.119Z,97211.13
2022-12-29T16:14:31.986Z,97215.44
2022-12-29T16:17:01.258Z,97218.03
2022-12-29T16:19:30.916Z,97217.03
2022-12-29T16:22:01.014Z,97223.28
2022-12-29T16:24:34.118Z,97227.72
2022-12-29T16:27:04.555Z,97232.22
2022-12-29T16:29:32.858Z,97224.03
2022-12-29T16:32:04.301Z,97231.34
2022-12-29T16:34:33.321Z,97235.84
2022-12-29T16:37:03.819Z,97235.75
2022-12-29T16:39:40.379Z,97225.97
2022-12-29T16:42:50.941Z,97222.41
2022-12-29T16:46:08.270Z,97236.72
2022-12-29T16:48:37.545Z,97218.03
2022-12-29T16:51:07.266Z,97223.69
2022-12-29T16:53:39.087Z,97223.91
2022-12-29T16:56:10.223Z,97229.19
2022-12-29T16:58:38.309Z,97220.13
2022-12-29T17:01:07.392Z,97220.91
2022-12-29T17:03:36.534Z,97213.72
2022-12-29T17:06:05.014Z,97205.66
2022-12-29T17:08:42.203Z,97207.28
2022-12-29T17:11:41.529Z,97202.03
2022-12-29T17:14:32.737Z,97192.13
2022-12-29T17:17:02.097Z,97194.72
2022-12-29T17:19:32.046Z,97196.53
2022-12-29T17:22:00.179Z,97201.91
2022-12-29T17:24:29.986Z,97202.88
2022-12-29T17:26:59.239Z,97208.22
2022-12-29T17:29:32.003Z,97206.41
2022-12-29T17:32:00.535Z,97194.72
2022-12-29T17:34:28.643Z,97196.44
2022-12-29T17:36:56.849Z,97196.31
2022-12-29T17:39:24.936Z,97207.94
2022-12-29T17:41:54.501Z,97196.25
2022-12-29T17:44:22.730Z,97207.94
2022-12-29T17:46:51.168Z,97214.16
2022-12-29T17:49:19.544Z,97212.44
2022-12-29T17:51:47.764Z,97220.50
2022-12-29T17:54:20.930Z,97214.16
2022-12-29T17:56:49.080Z,97218.56
2022-12-29T17:59:18.675Z,97206.00
2022-12-29T18:01:47.414Z,97214.16
2022-12-29T18:04:16.585Z,97211.50
2022-12-29T18:06:45.127Z,97210.72
2022-12-29T18:09:13.186Z,97210.84
2022-12-29T18:11:41.606Z,97217.03
2022-12-29T18:14:12.784Z,97226.09
2022-12-29T18:16:42.365Z,97221.59
2022-12-29T18:19:10.492Z,97226.94
2022-12-29T18:21:38.622Z,97229.53
2022-12-29T18:24:07.396Z,97218.69
2022-12-29T18:26:35.789Z,97224.03
2022-12-29T18:29:03.977Z,97221.38
2022-12-29T18:31:32.852Z,97226.84
2022-12-29T18:34:03.267Z,97224.03
2022-12-29T18:36:31.469Z,97225.78
2022-12-29T18:38:59.539Z,97219.53
2022-12-29T18:41:29.727Z,97218.56
2022-12-29T18:43:58.080Z,97220.41
2022-12-29T18:46:26.211Z,97220.41
2022-12-29T18:48:54.627Z,97214.94
2022-12-29T18:51:24.852Z,97214.81
2022-12-29T18:53:54.395Z,97212.91
2022-12-29T18:56:23.267Z,97209.25
2022-12-29T18:58:51.595Z,97216.34
2022-12-29T19:01:21.656Z,97215.47
2022-12-29T19:03:50.135Z,97203.88
2022-12-29T19:06:18.236Z,97206.56
2022-12-29T19:08:47.754Z,97200.22
2022-12-29T19:11:15.842Z,97203.88
2022-12-29T19:13:44.051Z,97200.22
2022-12-29T19:16:13.657Z,97199.34
2022-12-29T19:18:44.041Z,97194.84
2022-12-29T19:21:13.776Z,97201.09
2022-12-29T19:23:41.899Z,97193.97
2022-12-29T19:26:29.995Z,97194.84
2022-12-29T19:28:58.269Z,97182.41
2022-12-29T19:31:26.445Z,97185.94
2022-12-29T19:33:54.654Z,97196.59
2022-12-29T19:36:22.858Z,97193.03
2022-12-29T19:38:51.045Z,97196.59
2022-12-29T19:41:20.819Z,97194.75
2022-12-29T19:43:48.848Z,97206.47
2022-12-29T19:46:17.797Z,97198.41
2022-12-29T19:48:45.897Z,97204.53
2022-12-29T19:51:15.595Z,97185.75
2022-12-29T19:53:43.991Z,97194.66
2022-12-29T19:56:12.183Z,97185.75
2022-12-29T19:58:46.652Z,97199.06
2022-12-29T20:01:16.613Z,97194.75
2022-12-29T20:03:44.885Z,97189.28
2022-12-29T20:06:13.118Z,97191.97
2022-12-29T20:08:41.284Z,97194.66
2022-12-29T20:11:10.431Z,97200.03
2022-12-29T20:13:38.587Z,97200.88
2022-12-29T20:16:09.250Z,97207.97
2022-12-29T20:18:37.490Z,97198.94
2022-12-29T20:21:05.854Z,97199.91
2022-12-29T20:23:34.056Z,97201.63
2022-12-29T20:26:02.475Z,97200.78
2022-12-29T20:28:30.964Z,97203.47
2022-12-29T20:31:00.184Z,97204.31
2022-12-29T20:33:29.752Z,97197.25
2022-12-29T20:36:05.858Z,97198.19
2022-12-29T20:38:34.002Z,97190.03
2022-12-29T20:41:02.147Z,97188.31
2022-12-29T20:43:30.274Z,97188.19
2022-12-29T20:45:58.390Z,97185.44
2022-12-29T20:48:26.543Z,97177.47
2022-12-29T20:50:59.393Z,97180.38
2022-12-29T20:53:27.956Z,97172.41
2022-12-29T20:55:56.064Z,97168.75
2022-12-29T20:58:24.962Z,97171.44
2022-12-29T21:00:53.566Z,97161.56
2022-12-29T21:03:21.777Z,97169.75
2022-12-29T21:05:49.892Z,97163.38
2022-12-29T21:08:21.142Z,97163.50
2022-12-29T21:10:49.318Z,97163.50
2022-12-29T21:13:17.675Z,97148.25
2022-12-29T21:15:45.884Z,97146.41
2022-12-29T21:18:14.332Z,97143.81
2022-12-29T21:20:42.541Z,97143.72
2022-12-29T21:23:10.863Z,97137.59
2022-12-29T21:25:44.447Z,97140.28
2022-12-29T21:28:13.295Z,97140.19
2022-12-29T21:30:41.579Z,97141.16
2022-12-29T21:33:09.867Z,97131.38
2022-12-29T21:35:38.539Z,97131.56
2022-12-29T21:38:06.759Z,97129.75
2022-12-29T21:40:35.444Z,97120.84
2022-12-29T21:43:05.002Z,97119.03
2022-12-29T21:45:32.544Z,97109.22
2022-12-29T21:48:18.830Z,97104.84
2022-12-29T21:51:05.635Z,97095.91
2022-12-29T21:53:40.897Z,97101.41
2022-12-29T21:56:10.116Z,97100.66
2022-12-29T21:58:57.880Z,97094.63
2022-12-29T22:01:44.162Z,97089.44
2022-12-29T22:04:30.897Z,97096.88
2022-12-29T22:07:16.240Z,97089.75
2022-12-29T22:10:01.587Z,97090.75
2022-12-29T22:12:48.214Z,97088.25
2022-12-29T22:15:17.784Z,97095.56
2022-12-29T22:17:48.859Z,97091.16
2022-12-29T22:20:17.489Z,97102.84
2022-12-29T22:22:45.575Z,97104.78
2022-12-29T22:25:13.701Z,97102.19
2022-12-29T22:27:41.855Z,97106.81
2022-12-29T22:30:10.392Z,97096.19
2022-12-29T22:32:39.835Z,97101.66
2022-12-29T22:35:08.571Z,97105.31
2022-12-29T22:37:37.117Z,97122.38
2022-12-29T22:40:05.887Z,97117.09
2022-12-29T22:42:34.083Z,97117.09
2022-12-29T22:45:02.178Z,97118.19
2022-12-29T22:47:30.280Z,97127.19
2022-12-29T22:50:00.456Z,97119.25
2022-12-29T22:52:28.562Z,97128.25
2022-12-29T22:54:59.226Z,97116.75
2022-12-29T22:57:32.225Z,97122.97
2022-12-29T23:00:00.248Z,97126.66
2022-12-29T23:02:28.878Z,97119.53
2022-12-29T23:05:05.226Z,97123.19
2022-12-29T23:07:35.557Z,97119.66
2022-12-29T23:10:03.918Z,97110.72
2022-12-29T23:12:32.254Z,97116.22
2022-12-29T23:15:00.332Z,97114.47
2022-12-29T23:17:28.420Z,97102.97
2022-12-29T23:19:56.486Z,97094.19
2022-12-29T23:22:25.120Z,97085.28
2022-12-29T23:24:54.663Z,97075.50
2022-12-29T23:27:22.787Z,97074.66
2022-12-29T23:29:50.850Z,97069.31
2022-12-29T23:32:18.988Z,97062.09
2022-12-29T23:34:47.065Z,97064.66
2022-12-29T23:37:15.215Z,97072.81
2022-12-29T23:39:43.311Z,97065.88
2022-12-29T23:42:12.923Z,97064.00
2022-12-29T23:44:41.017Z,97063.19
2022-12-29T23:47:09.114Z,97077.66
2022-12-29T23:49:37.178Z,97069.72
2022-12-29T23:52:05.320Z,97072.47
2022-12-29T23:54:33.485Z,97078.72
2022-12-29T23:57:01.676Z,97082.41
2022-12-29T23:59:31.230Z,97075.34
